sensor_id;sensor_type;location;lat;lon;timestamp;P1;durP1;ratioP1;P2;durP2;ratioP2
4055;SDS011;2043;52.184;8.690;2023-04-06T00:00:58;20.80;;;12.07;;
4055;SDS011;2043;52.184;8.690;2023-04-06T00:03:25;19.13;;;11.07;;
4055;SDS011;2043;52.184;8.690;2023-04-06T00:05:52;21.83;;;11.53;;
4055;SDS011;2043;52.184;8.690;2023-04-06T00:08:19;24.53;;;12.30;;
4055;SDS011;2043;52.184;8.690;2023-04-06T00:10:47;22.27;;;12.43;;
4055;SDS011;2043;52.184;8.690;2023-04-06T00:13:14;25.00;;;12.90;;
4055;SDS011;2043;52.184;8.690;2023-04-06T00:15:41;23.93;;;12.50;;
4055;SDS011;2043;52.184;8.690;2023-04-06T00:18:08;24.37;;;12.37;;
4055;SDS011;2043;52.184;8.690;2023-04-06T00:20:35;25.13;;;12.90;;
4055;SDS011;2043;52.184;8.690;2023-04-06T00:23:02;23.07;;;11.93;;
4055;SDS011;2043;52.184;8.690;2023-04-06T00:25:29;21.77;;;11.93;;
4055;SDS011;2043;52.184;8.690;2023-04-06T00:27:56;23.23;;;11.87;;
4055;SDS011;2043;52.184;8.690;2023-04-06T00:30:23;18.10;;;10.77;;
4055;SDS011;2043;52.184;8.690;2023-04-06T00:32:50;26.27;;;11.23;;
4055;SDS011;2043;52.184;8.690;2023-04-06T00:35:17;21.13;;;11.73;;
4055;SDS011;2043;52.184;8.690;2023-04-06T00:37:45;28.50;;;12.60;;
4055;SDS011;2043;52.184;8.690;2023-04-06T00:40:14;20.83;;;11.93;;
4055;SDS011;2043;52.184;8.690;2023-04-06T00:42:41;24.93;;;12.27;;
4055;SDS011;2043;52.184;8.690;2023-04-06T00:45:08;22.97;;;12.50;;
4055;SDS011;2043;52.184;8.690;2023-04-06T00:47:35;21.67;;;11.90;;
4055;SDS011;2043;52.184;8.690;2023-04-06T00:50:03;23.97;;;11.93;;
4055;SDS011;2043;52.184;8.690;2023-04-06T00:52:30;29.00;;;12.37;;
4055;SDS011;2043;52.184;8.690;2023-04-06T00:54:57;22.37;;;12.27;;
4055;SDS011;2043;52.184;8.690;2023-04-06T00:57:23;22.07;;;11.80;;
4055;SDS011;2043;52.184;8.690;2023-04-06T00:59:50;21.90;;;12.53;;
4055;SDS011;2043;52.184;8.690;2023-04-06T01:02:18;25.50;;;12.87;;
4055;SDS011;2043;52.184;8.690;2023-04-06T01:04:45;20.60;;;11.80;;
4055;SDS011;2043;52.184;8.690;2023-04-06T01:07:12;22.03;;;11.73;;
4055;SDS011;2043;52.184;8.690;2023-04-06T01:09:39;22.97;;;12.20;;
4055;SDS011;2043;52.184;8.690;2023-04-06T01:12:08;19.40;;;11.10;;
4055;SDS011;2043;52.184;8.690;2023-04-06T01:14:35;19.80;;;11.83;;
4055;SDS011;2043;52.184;8.690;2023-04-06T01:17:02;20.60;;;12.30;;
4055;SDS011;2043;52.184;8.690;2023-04-06T01:19:28;23.00;;;11.97;;
4055;SDS011;2043;52.184;8.690;2023-04-06T01:21:55;19.47;;;10.60;;
4055;SDS011;2043;52.184;8.690;2023-04-06T01:24:23;24.50;;;11.53;;
4055;SDS011;2043;52.184;8.690;2023-04-06T01:26:49;22.20;;;11.90;;
4055;SDS011;2043;52.184;8.690;2023-04-06T01:29:16;22.97;;;12.20;;
4055;SDS011;2043;52.184;8.690;2023-04-06T01:31:43;22.37;;;11.87;;
4055;SDS011;2043;52.184;8.690;2023-04-06T01:34:10;23.47;;;11.70;;
4055;SDS011;2043;52.184;8.690;2023-04-06T01:36:37;20.23;;;11.43;;
4055;SDS011;2043;52.184;8.690;2023-04-06T01:39:04;21.73;;;11.27;;
4055;SDS011;2043;52.184;8.690;2023-04-06T01:41:31;22.90;;;12.57;;
4055;SDS011;2043;52.184;8.690;2023-04-06T01:43:58;23.83;;;12.67;;
4055;SDS011;2043;52.184;8.690;2023-04-06T01:46:25;20.57;;;11.77;;
4055;SDS011;2043;52.184;8.690;2023-04-06T01:48:52;19.20;;;11.43;;
4055;SDS011;2043;52.184;8.690;2023-04-06T01:51:19;21.90;;;11.70;;
4055;SDS011;2043;52.184;8.690;2023-04-06T01:53:46;27.73;;;11.20;;
4055;SDS011;2043;52.184;8.690;2023-04-06T01:56:14;24.40;;;12.20;;
4055;SDS011;2043;52.184;8.690;2023-04-06T01:58:41;23.93;;;11.23;;
4055;SDS011;2043;52.184;8.690;2023-04-06T02:01:08;25.37;;;12.40;;
4055;SDS011;2043;52.184;8.690;2023-04-06T02:03:35;20.50;;;11.77;;
4055;SDS011;2043;52.184;8.690;2023-04-06T02:06:02;19.67;;;10.97;;
4055;SDS011;2043;52.184;8.690;2023-04-06T02:08:30;24.90;;;11.60;;
4055;SDS011;2043;52.184;8.690;2023-04-06T02:10:56;20.50;;;11.70;;
4055;SDS011;2043;52.184;8.690;2023-04-06T02:13:24;20.30;;;11.57;;
4055;SDS011;2043;52.184;8.690;2023-04-06T02:15:50;18.27;;;11.30;;
4055;SDS011;2043;52.184;8.690;2023-04-06T02:18:17;23.40;;;12.57;;
4055;SDS011;2043;52.184;8.690;2023-04-06T02:20:44;23.40;;;11.80;;
4055;SDS011;2043;52.184;8.690;2023-04-06T02:23:11;20.50;;;11.87;;
4055;SDS011;2043;52.184;8.690;2023-04-06T02:25:38;25.53;;;13.00;;
4055;SDS011;2043;52.184;8.690;2023-04-06T02:28:06;27.80;;;12.27;;
4055;SDS011;2043;52.184;8.690;2023-04-06T02:30:33;20.73;;;12.10;;
4055;SDS011;2043;52.184;8.690;2023-04-06T02:33:00;21.30;;;12.20;;
4055;SDS011;2043;52.184;8.690;2023-04-06T02:35:28;21.63;;;11.97;;
4055;SDS011;2043;52.184;8.690;2023-04-06T02:37:56;20.73;;;12.30;;
4055;SDS011;2043;52.184;8.690;2023-04-06T02:40:23;22.77;;;12.97;;
4055;SDS011;2043;52.184;8.690;2023-04-06T02:42:50;26.73;;;12.80;;
4055;SDS011;2043;52.184;8.690;2023-04-06T02:45:17;28.23;;;12.60;;
4055;SDS011;2043;52.184;8.690;2023-04-06T02:47:44;19.80;;;11.53;;
4055;SDS011;2043;52.184;8.690;2023-04-06T02:50:11;18.97;;;11.80;;
4055;SDS011;2043;52.184;8.690;2023-04-06T02:52:38;20.03;;;11.20;;
4055;SDS011;2043;52.184;8.690;2023-04-06T02:55:05;21.93;;;11.47;;
4055;SDS011;2043;52.184;8.690;2023-04-06T02:57:33;21.17;;;12.10;;
4055;SDS011;2043;52.184;8.690;2023-04-06T03:00:01;19.60;;;11.43;;
4055;SDS011;2043;52.184;8.690;2023-04-06T03:02:28;21.10;;;11.13;;
4055;SDS011;2043;52.184;8.690;2023-04-06T03:04:55;26.23;;;12.20;;
4055;SDS011;2043;52.184;8.690;2023-04-06T03:07:22;26.70;;;12.50;;
4055;SDS011;2043;52.184;8.690;2023-04-06T03:09:49;22.27;;;12.47;;
4055;SDS011;2043;52.184;8.690;2023-04-06T03:12:16;24.00;;;12.00;;
4055;SDS011;2043;52.184;8.690;2023-04-06T03:14:43;24.23;;;13.03;;
4055;SDS011;2043;52.184;8.690;2023-04-06T03:17:10;26.27;;;12.33;;
4055;SDS011;2043;52.184;8.690;2023-04-06T03:19:37;22.20;;;11.50;;
4055;SDS011;2043;52.184;8.690;2023-04-06T03:22:04;21.00;;;12.30;;
4055;SDS011;2043;52.184;8.690;2023-04-06T03:24:32;35.70;;;12.60;;
4055;SDS011;2043;52.184;8.690;2023-04-06T03:26:58;33.23;;;13.53;;
4055;SDS011;2043;52.184;8.690;2023-04-06T03:29:26;27.90;;;11.83;;
4055;SDS011;2043;52.184;8.690;2023-04-06T03:31:53;23.70;;;11.80;;
4055;SDS011;2043;52.184;8.690;2023-04-06T03:34:21;26.50;;;13.90;;
4055;SDS011;2043;52.184;8.690;2023-04-06T03:36:47;23.87;;;12.30;;
4055;SDS011;2043;52.184;8.690;2023-04-06T03:39:32;24.37;;;12.80;;
4055;SDS011;2043;52.184;8.690;2023-04-06T03:41:58;24.23;;;12.70;;
4055;SDS011;2043;52.184;8.690;2023-04-06T03:44:25;28.60;;;12.63;;
4055;SDS011;2043;52.184;8.690;2023-04-06T03:46:52;27.57;;;13.63;;
4055;SDS011;2043;52.184;8.690;2023-04-06T03:49:19;34.33;;;13.03;;
4055;SDS011;2043;52.184;8.690;2023-04-06T03:51:46;25.47;;;12.53;;
4055;SDS011;2043;52.184;8.690;2023-04-06T03:54:13;29.03;;;13.80;;
4055;SDS011;2043;52.184;8.690;2023-04-06T03:56:41;28.03;;;11.90;;
4055;SDS011;2043;52.184;8.690;2023-04-06T03:59:07;29.73;;;13.60;;
4055;SDS011;2043;52.184;8.690;2023-04-06T04:01:35;23.60;;;13.00;;
4055;SDS011;2043;52.184;8.690;2023-04-06T04:04:02;25.20;;;13.33;;
4055;SDS011;2043;52.184;8.690;2023-04-06T04:06:29;24.10;;;12.50;;
4055;SDS011;2043;52.184;8.690;2023-04-06T04:08:56;34.63;;;13.20;;
4055;SDS011;2043;52.184;8.690;2023-04-06T04:11:23;35.53;;;14.03;;
4055;SDS011;2043;52.184;8.690;2023-04-06T04:13:50;26.10;;;12.43;;
4055;SDS011;2043;52.184;8.690;2023-04-06T04:16:17;25.10;;;12.70;;
4055;SDS011;2043;52.184;8.690;2023-04-06T04:18:44;23.03;;;12.90;;
4055;SDS011;2043;52.184;8.690;2023-04-06T04:21:13;28.70;;;13.30;;
4055;SDS011;2043;52.184;8.690;2023-04-06T04:23:40;32.13;;;13.23;;
4055;SDS011;2043;52.184;8.690;2023-04-06T04:26:07;26.20;;;12.60;;
4055;SDS011;2043;52.184;8.690;2023-04-06T04:28:34;27.27;;;12.80;;
4055;SDS011;2043;52.184;8.690;2023-04-06T04:31:01;28.43;;;13.33;;
4055;SDS011;2043;52.184;8.690;2023-04-06T04:33:28;27.63;;;13.37;;
4055;SDS011;2043;52.184;8.690;2023-04-06T04:35:56;32.40;;;13.63;;
4055;SDS011;2043;52.184;8.690;2023-04-06T04:38:22;28.00;;;13.10;;
4055;SDS011;2043;52.184;8.690;2023-04-06T04:40:49;33.80;;;13.70;;
4055;SDS011;2043;52.184;8.690;2023-04-06T04:43:16;22.87;;;13.00;;
4055;SDS011;2043;52.184;8.690;2023-04-06T04:45:43;34.80;;;15.00;;
4055;SDS011;2043;52.184;8.690;2023-04-06T04:48:10;26.50;;;13.77;;
4055;SDS011;2043;52.184;8.690;2023-04-06T04:50:37;26.23;;;14.00;;
4055;SDS011;2043;52.184;8.690;2023-04-06T04:53:04;28.80;;;13.90;;
4055;SDS011;2043;52.184;8.690;2023-04-06T04:55:32;34.27;;;14.60;;
4055;SDS011;2043;52.184;8.690;2023-04-06T04:57:59;26.00;;;13.23;;
4055;SDS011;2043;52.184;8.690;2023-04-06T05:00:26;27.30;;;15.10;;
4055;SDS011;2043;52.184;8.690;2023-04-06T05:02:54;42.10;;;13.03;;
4055;SDS011;2043;52.184;8.690;2023-04-06T05:05:20;34.33;;;13.53;;
4055;SDS011;2043;52.184;8.690;2023-04-06T05:07:47;28.40;;;14.00;;
4055;SDS011;2043;52.184;8.690;2023-04-06T05:10:14;30.07;;;13.20;;
4055;SDS011;2043;52.184;8.690;2023-04-06T05:12:41;35.13;;;13.50;;
4055;SDS011;2043;52.184;8.690;2023-04-06T05:15:08;26.40;;;14.17;;
4055;SDS011;2043;52.184;8.690;2023-04-06T05:17:36;33.80;;;13.80;;
4055;SDS011;2043;52.184;8.690;2023-04-06T05:20:03;38.97;;;14.17;;
4055;SDS011;2043;52.184;8.690;2023-04-06T05:22:30;31.80;;;14.10;;
4055;SDS011;2043;52.184;8.690;2023-04-06T05:24:57;27.70;;;14.50;;
4055;SDS011;2043;52.184;8.690;2023-04-06T05:27:24;33.53;;;14.70;;
4055;SDS011;2043;52.184;8.690;2023-04-06T05:29:51;32.10;;;15.47;;
4055;SDS011;2043;52.184;8.690;2023-04-06T05:32:21;42.83;;;14.67;;
4055;SDS011;2043;52.184;8.690;2023-04-06T05:34:49;31.17;;;13.53;;
4055;SDS011;2043;52.184;8.690;2023-04-06T05:37:16;30.20;;;13.57;;
4055;SDS011;2043;52.184;8.690;2023-04-06T05:39:43;31.10;;;13.60;;
4055;SDS011;2043;52.184;8.690;2023-04-06T05:42:09;25.57;;;14.27;;
4055;SDS011;2043;52.184;8.690;2023-04-06T05:44:37;28.03;;;13.73;;
4055;SDS011;2043;52.184;8.690;2023-04-06T05:47:04;28.67;;;14.00;;
4055;SDS011;2043;52.184;8.690;2023-04-06T05:49:31;28.70;;;14.27;;
4055;SDS011;2043;52.184;8.690;2023-04-06T05:51:58;29.40;;;14.00;;
4055;SDS011;2043;52.184;8.690;2023-04-06T05:54:24;26.80;;;12.17;;
4055;SDS011;2043;52.184;8.690;2023-04-06T05:56:52;27.00;;;13.70;;
4055;SDS011;2043;52.184;8.690;2023-04-06T05:59:19;22.47;;;12.73;;
4055;SDS011;2043;52.184;8.690;2023-04-06T06:01:46;27.70;;;14.37;;
4055;SDS011;2043;52.184;8.690;2023-04-06T06:04:14;27.60;;;14.10;;
4055;SDS011;2043;52.184;8.690;2023-04-06T06:06:41;29.87;;;14.93;;
4055;SDS011;2043;52.184;8.690;2023-04-06T06:09:08;30.50;;;15.10;;
4055;SDS011;2043;52.184;8.690;2023-04-06T06:11:35;24.73;;;14.03;;
4055;SDS011;2043;52.184;8.690;2023-04-06T06:14:03;24.37;;;14.20;;
4055;SDS011;2043;52.184;8.690;2023-04-06T06:16:30;32.17;;;14.60;;
4055;SDS011;2043;52.184;8.690;2023-04-06T06:18:57;25.20;;;14.43;;
4055;SDS011;2043;52.184;8.690;2023-04-06T06:21:24;24.73;;;13.37;;
4055;SDS011;2043;52.184;8.690;2023-04-06T06:23:50;25.17;;;16.10;;
4055;SDS011;2043;52.184;8.690;2023-04-06T06:26:17;23.50;;;15.07;;
4055;SDS011;2043;52.184;8.690;2023-04-06T06:28:44;28.00;;;15.20;;
4055;SDS011;2043;52.184;8.690;2023-04-06T06:31:11;24.20;;;15.20;;
4055;SDS011;2043;52.184;8.690;2023-04-06T06:33:38;29.53;;;14.77;;
4055;SDS011;2043;52.184;8.690;2023-04-06T06:36:05;24.43;;;13.77;;
4055;SDS011;2043;52.184;8.690;2023-04-06T06:38:32;28.47;;;14.57;;
4055;SDS011;2043;52.184;8.690;2023-04-06T06:40:59;21.50;;;13.43;;
4055;SDS011;2043;52.184;8.690;2023-04-06T06:43:26;22.00;;;14.20;;
4055;SDS011;2043;52.184;8.690;2023-04-06T06:45:53;22.07;;;12.87;;
4055;SDS011;2043;52.184;8.690;2023-04-06T06:48:19;24.90;;;13.70;;
4055;SDS011;2043;52.184;8.690;2023-04-06T06:50:47;18.93;;;12.03;;
4055;SDS011;2043;52.184;8.690;2023-04-06T06:53:14;17.80;;;11.90;;
4055;SDS011;2043;52.184;8.690;2023-04-06T06:55:41;21.63;;;11.60;;
4055;SDS011;2043;52.184;8.690;2023-04-06T06:58:10;19.73;;;11.93;;
4055;SDS011;2043;52.184;8.690;2023-04-06T07:00:37;32.27;;;12.47;;
4055;SDS011;2043;52.184;8.690;2023-04-06T07:03:04;21.67;;;13.50;;
4055;SDS011;2043;52.184;8.690;2023-04-06T07:08:06;16.90;;;11.50;;
4055;SDS011;2043;52.184;8.690;2023-04-06T07:10:33;19.03;;;12.27;;
4055;SDS011;2043;52.184;8.690;2023-04-06T07:13:01;23.53;;;13.07;;
4055;SDS011;2043;52.184;8.690;2023-04-06T07:15:28;24.00;;;14.13;;
4055;SDS011;2043;52.184;8.690;2023-04-06T07:17:54;34.77;;;19.50;;
4055;SDS011;2043;52.184;8.690;2023-04-06T07:20:22;36.40;;;20.77;;
4055;SDS011;2043;52.184;8.690;2023-04-06T07:22:48;42.97;;;19.83;;
4055;SDS011;2043;52.184;8.690;2023-04-06T07:25:15;30.17;;;17.60;;
4055;SDS011;2043;52.184;8.690;2023-04-06T07:27:42;33.43;;;17.70;;
4055;SDS011;2043;52.184;8.690;2023-04-06T07:30:09;25.33;;;15.27;;
4055;SDS011;2043;52.184;8.690;2023-04-06T07:32:36;26.20;;;15.13;;
4055;SDS011;2043;52.184;8.690;2023-04-06T07:35:03;22.50;;;14.60;;
4055;SDS011;2043;52.184;8.690;2023-04-06T07:37:31;29.93;;;14.83;;
4055;SDS011;2043;52.184;8.690;2023-04-06T07:39:57;24.53;;;13.70;;
4055;SDS011;2043;52.184;8.690;2023-04-06T07:42:24;22.57;;;14.27;;
4055;SDS011;2043;52.184;8.690;2023-04-06T07:44:51;29.40;;;15.27;;
4055;SDS011;2043;52.184;8.690;2023-04-06T07:47:18;22.50;;;13.43;;
4055;SDS011;2043;52.184;8.690;2023-04-06T07:49:45;22.60;;;12.00;;
4055;SDS011;2043;52.184;8.690;2023-04-06T07:52:11;17.80;;;12.20;;
4055;SDS011;2043;52.184;8.690;2023-04-06T07:54:40;20.97;;;11.20;;
4055;SDS011;2043;52.184;8.690;2023-04-06T07:57:07;25.33;;;10.03;;
4055;SDS011;2043;52.184;8.690;2023-04-06T07:59:34;17.83;;;10.37;;
4055;SDS011;2043;52.184;8.690;2023-04-06T08:02:01;13.97;;;9.80;;
4055;SDS011;2043;52.184;8.690;2023-04-06T08:04:28;15.30;;;10.17;;
4055;SDS011;2043;52.184;8.690;2023-04-06T08:06:55;17.53;;;10.67;;
4055;SDS011;2043;52.184;8.690;2023-04-06T08:09:21;16.97;;;10.43;;
4055;SDS011;2043;52.184;8.690;2023-04-06T08:11:48;20.63;;;10.97;;
4055;SDS011;2043;52.184;8.690;2023-04-06T08:14:15;16.83;;;10.47;;
4055;SDS011;2043;52.184;8.690;2023-04-06T08:16:42;17.73;;;10.87;;
4055;SDS011;2043;52.184;8.690;2023-04-06T08:19:09;17.90;;;10.20;;
4055;SDS011;2043;52.184;8.690;2023-04-06T08:21:35;17.83;;;10.47;;
4055;SDS011;2043;52.184;8.690;2023-04-06T08:24:02;16.70;;;9.93;;
4055;SDS011;2043;52.184;8.690;2023-04-06T08:26:29;14.30;;;9.47;;
4055;SDS011;2043;52.184;8.690;2023-04-06T08:28:56;15.70;;;9.93;;
4055;SDS011;2043;52.184;8.690;2023-04-06T08:31:23;27.93;;;11.67;;
4055;SDS011;2043;52.184;8.690;2023-04-06T08:33:50;15.40;;;10.10;;
4055;SDS011;2043;52.184;8.690;2023-04-06T08:36:17;16.07;;;10.07;;
4055;SDS011;2043;52.184;8.690;2023-04-06T08:38:49;17.83;;;9.70;;
4055;SDS011;2043;52.184;8.690;2023-04-06T08:41:16;17.83;;;9.13;;
4055;SDS011;2043;52.184;8.690;2023-04-06T08:43:46;13.53;;;8.47;;
4055;SDS011;2043;52.184;8.690;2023-04-06T08:46:14;13.67;;;9.20;;
4055;SDS011;2043;52.184;8.690;2023-04-06T08:48:42;15.30;;;9.10;;
4055;SDS011;2043;52.184;8.690;2023-04-06T08:51:09;18.83;;;9.20;;
4055;SDS011;2043;52.184;8.690;2023-04-06T08:53:36;19.93;;;8.87;;
4055;SDS011;2043;52.184;8.690;2023-04-06T08:56:04;15.87;;;9.37;;
4055;SDS011;2043;52.184;8.690;2023-04-06T08:58:35;20.00;;;10.60;;
4055;SDS011;2043;52.184;8.690;2023-04-06T09:01:08;13.60;;;8.60;;
4055;SDS011;2043;52.184;8.690;2023-04-06T09:03:37;16.93;;;8.97;;
4055;SDS011;2043;52.184;8.690;2023-04-06T09:06:07;14.40;;;8.80;;
4055;SDS011;2043;52.184;8.690;2023-04-06T09:08:35;14.90;;;8.60;;
4055;SDS011;2043;52.184;8.690;2023-04-06T09:11:04;17.00;;;9.90;;
4055;SDS011;2043;52.184;8.690;2023-04-06T09:13:43;16.00;;;8.83;;
4055;SDS011;2043;52.184;8.690;2023-04-06T09:16:16;16.53;;;9.30;;
4055;SDS011;2043;52.184;8.690;2023-04-06T09:18:44;15.63;;;8.93;;
4055;SDS011;2043;52.184;8.690;2023-04-06T09:21:11;15.90;;;9.17;;
4055;SDS011;2043;52.184;8.690;2023-04-06T09:23:38;21.00;;;9.13;;
4055;SDS011;2043;52.184;8.690;2023-04-06T09:26:15;16.80;;;9.60;;
4055;SDS011;2043;52.184;8.690;2023-04-06T09:29:04;14.93;;;9.10;;
4055;SDS011;2043;52.184;8.690;2023-04-06T09:31:32;15.40;;;8.97;;
4055;SDS011;2043;52.184;8.690;2023-04-06T09:33:59;18.53;;;9.30;;
4055;SDS011;2043;52.184;8.690;2023-04-06T09:36:33;15.40;;;9.80;;
4055;SDS011;2043;52.184;8.690;2023-04-06T09:39:08;15.20;;;9.27;;
4055;SDS011;2043;52.184;8.690;2023-04-06T09:41:35;14.03;;;9.23;;
4055;SDS011;2043;52.184;8.690;2023-04-06T09:44:06;14.57;;;9.60;;
4055;SDS011;2043;52.184;8.690;2023-04-06T09:46:40;17.63;;;10.40;;
4055;SDS011;2043;52.184;8.690;2023-04-06T09:49:30;18.80;;;9.37;;
4055;SDS011;2043;52.184;8.690;2023-04-06T09:52:00;15.90;;;9.73;;
4055;SDS011;2043;52.184;8.690;2023-04-06T09:54:32;16.87;;;9.70;;
4055;SDS011;2043;52.184;8.690;2023-04-06T09:57:04;15.43;;;9.50;;
4055;SDS011;2043;52.184;8.690;2023-04-06T10:05:37;18.13;;;9.50;;
4055;SDS011;2043;52.184;8.690;2023-04-06T10:08:16;16.53;;;10.43;;
4055;SDS011;2043;52.184;8.690;2023-04-06T10:10:45;16.73;;;10.40;;
4055;SDS011;2043;52.184;8.690;2023-04-06T10:13:13;17.57;;;10.90;;
4055;SDS011;2043;52.184;8.690;2023-04-06T10:15:40;22.40;;;11.13;;
4055;SDS011;2043;52.184;8.690;2023-04-06T10:18:09;18.60;;;10.13;;
4055;SDS011;2043;52.184;8.690;2023-04-06T10:25:58;17.80;;;11.30;;
4055;SDS011;2043;52.184;8.690;2023-04-06T10:28:30;17.17;;;11.13;;
4055;SDS011;2043;52.184;8.690;2023-04-06T10:31:00;16.20;;;10.70;;
4055;SDS011;2043;52.184;8.690;2023-04-06T10:33:28;23.73;;;11.40;;
4055;SDS011;2043;52.184;8.690;2023-04-06T10:35:55;18.30;;;11.20;;
4055;SDS011;2043;52.184;8.690;2023-04-06T10:38:34;18.53;;;10.87;;
4055;SDS011;2043;52.184;8.690;2023-04-06T10:41:08;20.50;;;11.20;;
4055;SDS011;2043;52.184;8.690;2023-04-06T10:43:38;20.60;;;11.60;;
4055;SDS011;2043;52.184;8.690;2023-04-06T10:46:09;20.77;;;12.80;;
4055;SDS011;2043;52.184;8.690;2023-04-06T10:48:43;18.23;;;12.00;;
4055;SDS011;2043;52.184;8.690;2023-04-06T10:51:14;20.50;;;12.40;;
4055;SDS011;2043;52.184;8.690;2023-04-06T10:53:44;20.53;;;11.80;;
4055;SDS011;2043;52.184;8.690;2023-04-06T10:56:14;22.07;;;13.50;;
4055;SDS011;2043;52.184;8.690;2023-04-06T10:58:46;24.20;;;12.63;;
4055;SDS011;2043;52.184;8.690;2023-04-06T11:01:18;20.20;;;12.10;;
4055;SDS011;2043;52.184;8.690;2023-04-06T11:03:47;22.53;;;12.27;;
4055;SDS011;2043;52.184;8.690;2023-04-06T11:06:19;18.03;;;12.00;;
4055;SDS011;2043;52.184;8.690;2023-04-06T11:08:46;22.23;;;12.27;;
4055;SDS011;2043;52.184;8.690;2023-04-06T11:11:13;19.57;;;12.80;;
4055;SDS011;2043;52.184;8.690;2023-04-06T11:13:43;21.20;;;13.20;;
4055;SDS011;2043;52.184;8.690;2023-04-06T11:16:20;19.10;;;12.03;;
4055;SDS011;2043;52.184;8.690;2023-04-06T11:21:17;20.30;;;12.87;;
4055;SDS011;2043;52.184;8.690;2023-04-06T11:23:45;20.87;;;12.70;;
4055;SDS011;2043;52.184;8.690;2023-04-06T11:26:12;20.03;;;12.70;;
4055;SDS011;2043;52.184;8.690;2023-04-06T11:28:43;21.80;;;12.40;;
4055;SDS011;2043;52.184;8.690;2023-04-06T11:31:10;20.73;;;12.87;;
4055;SDS011;2043;52.184;8.690;2023-04-06T11:33:38;21.20;;;12.97;;
4055;SDS011;2043;52.184;8.690;2023-04-06T11:36:05;18.83;;;12.10;;
4055;SDS011;2043;52.184;8.690;2023-04-06T11:38:33;21.80;;;13.07;;
4055;SDS011;2043;52.184;8.690;2023-04-06T11:41:00;23.43;;;13.07;;
4055;SDS011;2043;52.184;8.690;2023-04-06T11:43:30;20.57;;;13.40;;
4055;SDS011;2043;52.184;8.690;2023-04-06T11:46:01;19.67;;;12.63;;
4055;SDS011;2043;52.184;8.690;2023-04-06T11:48:29;19.50;;;12.67;;
4055;SDS011;2043;52.184;8.690;2023-04-06T11:50:57;22.40;;;13.00;;
4055;SDS011;2043;52.184;8.690;2023-04-06T11:53:27;20.50;;;12.93;;
4055;SDS011;2043;52.184;8.690;2023-04-06T11:55:55;21.63;;;13.03;;
4055;SDS011;2043;52.184;8.690;2023-04-06T11:58:22;20.20;;;13.03;;
4055;SDS011;2043;52.184;8.690;2023-04-06T12:00:49;20.13;;;13.07;;
4055;SDS011;2043;52.184;8.690;2023-04-06T12:03:16;20.20;;;12.63;;
4055;SDS011;2043;52.184;8.690;2023-04-06T12:05:43;19.30;;;12.40;;
4055;SDS011;2043;52.184;8.690;2023-04-06T12:08:10;20.07;;;12.27;;
4055;SDS011;2043;52.184;8.690;2023-04-06T12:10:37;25.60;;;14.20;;
4055;SDS011;2043;52.184;8.690;2023-04-06T12:13:04;23.33;;;13.50;;
4055;SDS011;2043;52.184;8.690;2023-04-06T12:15:31;19.30;;;12.70;;
4055;SDS011;2043;52.184;8.690;2023-04-06T12:17:58;25.03;;;13.40;;
4055;SDS011;2043;52.184;8.690;2023-04-06T12:20:25;20.00;;;12.50;;
4055;SDS011;2043;52.184;8.690;2023-04-06T12:22:53;28.63;;;12.40;;
4055;SDS011;2043;52.184;8.690;2023-04-06T12:25:19;21.87;;;13.53;;
4055;SDS011;2043;52.184;8.690;2023-04-06T12:27:47;19.57;;;12.43;;
4055;SDS011;2043;52.184;8.690;2023-04-06T12:30:14;28.30;;;12.10;;
4055;SDS011;2043;52.184;8.690;2023-04-06T12:32:41;24.20;;;12.20;;
4055;SDS011;2043;52.184;8.690;2023-04-06T12:35:08;25.53;;;12.57;;
4055;SDS011;2043;52.184;8.690;2023-04-06T12:37:37;24.37;;;12.73;;
4055;SDS011;2043;52.184;8.690;2023-04-06T12:40:04;20.43;;;12.83;;
4055;SDS011;2043;52.184;8.690;2023-04-06T12:42:31;19.50;;;13.07;;
4055;SDS011;2043;52.184;8.690;2023-04-06T12:44:58;22.80;;;13.27;;
4055;SDS011;2043;52.184;8.690;2023-04-06T12:47:25;24.33;;;13.47;;
4055;SDS011;2043;52.184;8.690;2023-04-06T12:49:53;19.33;;;12.63;;
4055;SDS011;2043;52.184;8.690;2023-04-06T12:52:20;17.77;;;11.90;;
4055;SDS011;2043;52.184;8.690;2023-04-06T12:54:47;27.60;;;13.30;;
4055;SDS011;2043;52.184;8.690;2023-04-06T12:57:16;21.90;;;12.97;;
4055;SDS011;2043;52.184;8.690;2023-04-06T12:59:43;20.43;;;11.87;;
4055;SDS011;2043;52.184;8.690;2023-04-06T13:02:11;24.10;;;11.90;;
4055;SDS011;2043;52.184;8.690;2023-04-06T13:04:38;19.40;;;12.03;;
4055;SDS011;2043;52.184;8.690;2023-04-06T13:07:05;20.30;;;11.47;;
4055;SDS011;2043;52.184;8.690;2023-04-06T13:09:32;18.87;;;12.20;;
4055;SDS011;2043;52.184;8.690;2023-04-06T13:11:59;16.70;;;11.50;;
4055;SDS011;2043;52.184;8.690;2023-04-06T13:14:27;19.23;;;11.10;;
4055;SDS011;2043;52.184;8.690;2023-04-06T13:16:54;23.33;;;11.70;;
4055;SDS011;2043;52.184;8.690;2023-04-06T13:19:21;19.03;;;11.40;;
4055;SDS011;2043;52.184;8.690;2023-04-06T13:21:48;22.90;;;12.23;;
4055;SDS011;2043;52.184;8.690;2023-04-06T13:24:15;21.17;;;13.67;;
4055;SDS011;2043;52.184;8.690;2023-04-06T13:26:43;19.47;;;11.70;;
4055;SDS011;2043;52.184;8.690;2023-04-06T13:29:10;18.40;;;10.90;;
4055;SDS011;2043;52.184;8.690;2023-04-06T13:31:37;28.77;;;17.93;;
4055;SDS011;2043;52.184;8.690;2023-04-06T13:34:05;20.10;;;10.77;;
4055;SDS011;2043;52.184;8.690;2023-04-06T13:36:31;29.30;;;10.93;;
4055;SDS011;2043;52.184;8.690;2023-04-06T13:38:58;20.57;;;11.67;;
4055;SDS011;2043;52.184;8.690;2023-04-06T13:41:25;21.93;;;12.47;;
4055;SDS011;2043;52.184;8.690;2023-04-06T13:43:52;18.20;;;11.63;;
4055;SDS011;2043;52.184;8.690;2023-04-06T13:46:19;16.30;;;10.47;;
4055;SDS011;2043;52.184;8.690;2023-04-06T13:48:46;15.07;;;9.90;;
4055;SDS011;2043;52.184;8.690;2023-04-06T13:51:14;17.40;;;10.43;;
4055;SDS011;2043;52.184;8.690;2023-04-06T13:53:41;16.53;;;10.47;;
4055;SDS011;2043;52.184;8.690;2023-04-06T13:56:08;16.27;;;9.43;;
4055;SDS011;2043;52.184;8.690;2023-04-06T13:58:35;16.83;;;9.90;;
4055;SDS011;2043;52.184;8.690;2023-04-06T14:01:08;16.47;;;9.40;;
4055;SDS011;2043;52.184;8.690;2023-04-06T14:03:37;15.33;;;9.00;;
4055;SDS011;2043;52.184;8.690;2023-04-06T14:06:09;13.47;;;8.40;;
4055;SDS011;2043;52.184;8.690;2023-04-06T14:08:42;15.37;;;8.43;;
4055;SDS011;2043;52.184;8.690;2023-04-06T14:11:12;15.20;;;9.03;;
4055;SDS011;2043;52.184;8.690;2023-04-06T14:13:39;17.13;;;9.07;;
4055;SDS011;2043;52.184;8.690;2023-04-06T14:16:06;18.90;;;9.90;;
4055;SDS011;2043;52.184;8.690;2023-04-06T14:18:33;24.23;;;11.10;;
4055;SDS011;2043;52.184;8.690;2023-04-06T14:21:02;17.57;;;11.00;;
4055;SDS011;2043;52.184;8.690;2023-04-06T14:23:29;16.67;;;10.40;;
4055;SDS011;2043;52.184;8.690;2023-04-06T14:26:03;19.27;;;11.00;;
4055;SDS011;2043;52.184;8.690;2023-04-06T14:28:34;20.53;;;10.90;;
4055;SDS011;2043;52.184;8.690;2023-04-06T14:31:02;18.17;;;10.20;;
4055;SDS011;2043;52.184;8.690;2023-04-06T14:33:36;15.33;;;9.90;;
4055;SDS011;2043;52.184;8.690;2023-04-06T14:36:03;17.67;;;11.03;;
4055;SDS011;2043;52.184;8.690;2023-04-06T14:38:31;17.47;;;10.50;;
4055;SDS011;2043;52.184;8.690;2023-04-06T14:40:58;18.80;;;10.60;;
4055;SDS011;2043;52.184;8.690;2023-04-06T14:43:25;22.03;;;10.83;;
4055;SDS011;2043;52.184;8.690;2023-04-06T14:45:52;24.90;;;11.57;;
4055;SDS011;2043;52.184;8.690;2023-04-06T14:48:19;22.40;;;13.57;;
4055;SDS011;2043;52.184;8.690;2023-04-06T14:50:52;17.50;;;10.73;;
4055;SDS011;2043;52.184;8.690;2023-04-06T14:53:23;19.73;;;11.53;;
4055;SDS011;2043;52.184;8.690;2023-04-06T14:55:50;18.17;;;10.03;;
4055;SDS011;2043;52.184;8.690;2023-04-06T14:58:20;16.97;;;10.07;;
4055;SDS011;2043;52.184;8.690;2023-04-06T15:00:48;17.83;;;10.53;;
4055;SDS011;2043;52.184;8.690;2023-04-06T15:03:15;20.23;;;11.90;;
4055;SDS011;2043;52.184;8.690;2023-04-06T15:05:42;20.50;;;11.13;;
4055;SDS011;2043;52.184;8.690;2023-04-06T15:08:09;19.20;;;11.70;;
4055;SDS011;2043;52.184;8.690;2023-04-06T15:10:37;20.30;;;11.33;;